sensor_id;sensor_type;location;lat;lon;timestamp;pressure;altitude;pressure_sealevel;temperature;humidity
55373;BME280;41249;47.838;16.490;2022-07-06T00:02:23;99378.09;;;13.81;100.00
55373;BME280;41249;47.838;16.490;2022-07-06T00:04:49;99376.69;;;13.85;100.00
55373;BME280;41249;47.838;16.490;2022-07-06T00:07:16;99377.94;;;13.89;100.00
55373;BME280;41249;47.838;16.490;2022-07-06T00:09:43;99386.47;;;13.99;100.00
55373;BME280;41249;47.838;16.490;2022-07-06T00:12:10;99383.03;;;14.06;100.00
55373;BME280;41249;47.838;16.490;2022-07-06T00:14:37;99389.00;;;14.08;100.00
55373;BME280;41249;47.838;16.490;2022-07-06T00:17:03;99388.47;;;13.97;100.00
55373;BME280;41249;47.838;16.490;2022-07-06T00:19:30;99386.88;;;14.03;100.00
55373;BME280;41249;47.838;16.490;2022-07-06T00:21:57;99390.38;;;14.04;100.00
55373;BME280;41249;47.838;16.490;2022-07-06T00:24:25;99382.38;;;14.04;100.00
55373;BME280;41249;47.838;16.490;2022-07-06T00:26:52;99391.00;;;13.99;100.00
55373;BME280;41249;47.838;16.490;2022-07-06T00:29:19;99390.78;;;14.00;100.00
55373;BME280;41249;47.838;16.490;2022-07-06T00:31:46;99388.13;;;14.00;100.00
55373;BME280;41249;47.838;16.490;2022-07-06T00:34:13;99392.84;;;13.98;100.00
55373;BME280;41249;47.838;16.490;2022-07-06T00:36:40;99395.94;;;14.02;100.00
55373;BME280;41249;47.838;16.490;2022-07-06T00:39:07;99388.13;;;14.00;100.00
55373;BME280;41249;47.838;16.490;2022-07-06T00:41:33;99390.38;;;14.04;100.00
55373;BME280;41249;47.838;16.490;2022-07-06T00:44:00;99396.69;;;13.96;100.00
55373;BME280;41249;47.838;16.490;2022-07-06T00:46:34;99394.03;;;13.96;100.00
55373;BME280;41249;47.838;16.490;2022-07-06T00:49:01;99396.38;;;14.06;100.00
55373;BME280;41249;47.838;16.490;2022-07-06T00:51:34;99400.03;;;14.05;100.00
55373;BME280;41249;47.838;16.490;2022-07-06T00:54:04;99396.38;;;14.06;100.00
55373;BME280;41249;47.838;16.490;2022-07-06T00:56:31;99396.75;;;14.02;100.00
55373;BME280;41249;47.838;16.490;2022-07-06T00:59:02;99409.19;;;14.17;100.00
55373;BME280;41249;47.838;16.490;2022-07-06T01:01:29;99400.44;;;14.01;100.00
55373;BME280;41249;47.838;16.490;2022-07-06T01:03:56;99405.38;;;14.05;100.00
55373;BME280;41249;47.838;16.490;2022-07-06T01:06:23;99412.00;;;14.09;100.00
55373;BME280;41249;47.838;16.490;2022-07-06T01:08:50;99421.72;;;14.16;100.00
55373;BME280;41249;47.838;16.490;2022-07-06T01:11:18;99424.66;;;14.21;100.00
55373;BME280;41249;47.838;16.490;2022-07-06T01:13:47;99427.41;;;14.07;100.00
55373;BME280;41249;47.838;16.490;2022-07-06T01:16:14;99428.03;;;14.09;100.00
55373;BME280;41249;47.838;16.490;2022-07-06T01:18:42;99425.03;;;14.18;100.00
55373;BME280;41249;47.838;16.490;2022-07-06T01:21:11;99423.97;;;14.13;100.00
55373;BME280;41249;47.838;16.490;2022-07-06T01:23:39;99421.47;;;14.11;100.00
55373;BME280;41249;47.838;16.490;2022-07-06T01:26:09;99424.50;;;14.01;100.00
55373;BME280;41249;47.838;16.490;2022-07-06T01:28:36;99418.13;;;14.02;100.00
55373;BME280;41249;47.838;16.490;2022-07-06T01:31:03;99409.13;;;14.10;100.00
55373;BME280;41249;47.838;16.490;2022-07-06T01:33:29;99398.69;;;14.15;100.00
55373;BME280;41249;47.838;16.490;2022-07-06T01:35:56;99403.03;;;14.16;100.00
55373;BME280;41249;47.838;16.490;2022-07-06T01:38:23;99402.88;;;14.24;100.00
55373;BME280;41249;47.838;16.490;2022-07-06T01:40:50;99387.50;;;14.33;100.00
55373;BME280;41249;47.838;16.490;2022-07-06T01:43:18;99385.50;;;14.42;100.00
55373;BME280;41249;47.838;16.490;2022-07-06T01:45:45;99393.69;;;14.40;100.00
55373;BME280;41249;47.838;16.490;2022-07-06T01:48:12;99380.19;;;14.48;100.00
55373;BME280;41249;47.838;16.490;2022-07-06T01:50:39;99381.34;;;14.39;100.00
55373;BME280;41249;47.838;16.490;2022-07-06T01:53:06;99373.13;;;14.41;100.00
55373;BME280;41249;47.838;16.490;2022-07-06T01:55:33;99373.78;;;14.43;100.00
55373;BME280;41249;47.838;16.490;2022-07-06T01:57:59;99379.34;;;14.41;100.00
55373;BME280;41249;47.838;16.490;2022-07-06T02:00:26;99391.19;;;14.32;100.00
55373;BME280;41249;47.838;16.490;2022-07-06T02:02:53;99390.97;;;14.34;100.00
55373;BME280;41249;47.838;16.490;2022-07-06T02:05:20;99394.50;;;14.34;100.00
55373;BME280;41249;47.838;16.490;2022-07-06T02:07:47;99407.28;;;14.39;100.00
55373;BME280;41249;47.838;16.490;2022-07-06T02:10:14;99396.63;;;14.45;100.00
55373;BME280;41249;47.838;16.490;2022-07-06T02:12:42;99408.91;;;14.40;100.00
55373;BME280;41249;47.838;16.490;2022-07-06T02:15:09;99423.19;;;14.53;100.00
55373;BME280;41249;47.838;16.490;2022-07-06T02:17:38;99420.22;;;14.63;100.00
55373;BME280;41249;47.838;16.490;2022-07-06T02:20:05;99424.22;;;14.52;100.00
55373;BME280;41249;47.838;16.490;2022-07-06T02:22:32;99420.53;;;14.53;100.00
55373;BME280;41249;47.838;16.490;2022-07-06T02:24:59;99417.63;;;14.48;100.00
55373;BME280;41249;47.838;16.490;2022-07-06T02:27:26;99411.47;;;14.54;100.00
55373;BME280;41249;47.838;16.490;2022-07-06T02:29:53;99423.41;;;14.52;100.00
55373;BME280;41249;47.838;16.490;2022-07-06T02:32:20;99426.59;;;14.41;100.00
55373;BME280;41249;47.838;16.490;2022-07-06T02:34:48;99424.19;;;14.46;100.00
55373;BME280;41249;47.838;16.490;2022-07-06T02:37:16;99428.09;;;14.43;100.00
55373;BME280;41249;47.838;16.490;2022-07-06T02:39:42;99436.44;;;14.34;100.00
55373;BME280;41249;47.838;16.490;2022-07-06T02:42:09;99441.44;;;14.43;100.00
55373;BME280;41249;47.838;16.490;2022-07-06T02:44:36;99451.75;;;14.46;100.00
55373;BME280;41249;47.838;16.490;2022-07-06T02:47:03;99450.59;;;14.55;100.00
55373;BME280;41249;47.838;16.490;2022-07-06T02:49:30;99448.03;;;14.47;100.00
55373;BME280;41249;47.838;16.490;2022-07-06T02:51:57;99449.84;;;14.40;100.00
55373;BME280;41249;47.838;16.490;2022-07-06T02:54:24;99448.81;;;14.35;100.00
55373;BME280;41249;47.838;16.490;2022-07-06T02:56:51;99451.59;;;14.26;100.00
55373;BME280;41249;47.838;16.490;2022-07-06T02:59:20;99457.34;;;14.23;100.00
55373;BME280;41249;47.838;16.490;2022-07-06T03:01:47;99452.00;;;14.23;100.00
55373;BME280;41249;47.838;16.490;2022-07-06T03:04:15;99454.88;;;14.22;100.00
55373;BME280;41249;47.838;16.490;2022-07-06T03:06:43;99459.44;;;14.28;100.00
55373;BME280;41249;47.838;16.490;2022-07-06T03:09:10;99460.69;;;14.32;100.00
55373;BME280;41249;47.838;16.490;2022-07-06T03:11:37;99452.44;;;14.27;100.00
55373;BME280;41249;47.838;16.490;2022-07-06T03:14:05;99453.28;;;14.27;100.00
55373;BME280;41249;47.838;16.490;2022-07-06T03:16:35;99459.66;;;14.33;100.00
55373;BME280;41249;47.838;16.490;2022-07-06T03:19:03;99458.31;;;14.44;100.00
55373;BME280;41249;47.838;16.490;2022-07-06T03:21:29;99454.63;;;14.45;100.00
55373;BME280;41249;47.838;16.490;2022-07-06T03:23:56;99443.31;;;14.43;100.00
55373;BME280;41249;47.838;16.490;2022-07-06T03:26:24;99445.56;;;14.46;100.00
55373;BME280;41249;47.838;16.490;2022-07-06T03:28:50;99439.56;;;14.37;100.00
55373;BME280;41249;47.838;16.490;2022-07-06T03:31:18;99433.44;;;14.43;100.00
55373;BME280;41249;47.838;16.490;2022-07-06T03:33:45;99433.75;;;14.27;100.00
55373;BME280;41249;47.838;16.490;2022-07-06T03:36:12;99433.91;;;14.25;100.00
55373;BME280;41249;47.838;16.490;2022-07-06T03:38:39;99433.03;;;14.18;100.00
55373;BME280;41249;47.838;16.490;2022-07-06T03:41:06;99426.09;;;14.24;100.00
55373;BME280;41249;47.838;16.490;2022-07-06T03:43:33;99431.59;;;14.16;100.00
55373;BME280;41249;47.838;16.490;2022-07-06T03:46:00;99423.22;;;14.25;100.00
55373;BME280;41249;47.838;16.490;2022-07-06T03:48:27;99421.00;;;14.29;100.00
55373;BME280;41249;47.838;16.490;2022-07-06T03:50:54;99422.06;;;14.35;100.00
55373;BME280;41249;47.838;16.490;2022-07-06T03:53:22;99429.69;;;14.38;100.00
55373;BME280;41249;47.838;16.490;2022-07-06T03:55:49;99431.38;;;14.45;100.00
55373;BME280;41249;47.838;16.490;2022-07-06T03:58:35;99427.50;;;14.54;100.00
55373;BME280;41249;47.838;16.490;2022-07-06T04:01:02;99419.56;;;14.61;100.00
55373;BME280;41249;47.838;16.490;2022-07-06T04:03:29;99420.38;;;14.62;100.00
55373;BME280;41249;47.838;16.490;2022-07-06T04:06:00;99429.22;;;14.62;100.00
55373;BME280;41249;47.838;16.490;2022-07-06T04:08:28;99430.06;;;14.63;100.00
55373;BME280;41249;47.838;16.490;2022-07-06T04:10:56;99425.78;;;14.68;100.00
55373;BME280;41249;47.838;16.490;2022-07-06T04:13:23;99425.81;;;14.75;100.00
55373;BME280;41249;47.838;16.490;2022-07-06T04:15:51;99426.03;;;14.80;100.00
55373;BME280;41249;47.838;16.490;2022-07-06T04:18:18;99424.16;;;14.74;100.00
55373;BME280;41249;47.838;16.490;2022-07-06T04:20:50;99423.56;;;14.78;100.00
55373;BME280;41249;47.838;16.490;2022-07-06T04:23:18;99426.03;;;14.80;100.00
55373;BME280;41249;47.838;16.490;2022-07-06T04:25:45;99433.25;;;14.79;100.00
55373;BME280;41249;47.838;16.490;2022-07-06T04:28:11;99431.25;;;14.95;100.00
55373;BME280;41249;47.838;16.490;2022-07-06T04:30:38;99421.78;;;14.92;100.00
55373;BME280;41249;47.838;16.490;2022-07-06T04:33:09;99425.31;;;14.99;100.00
55373;BME280;41249;47.838;16.490;2022-07-06T04:35:37;99428.25;;;15.18;100.00
55373;BME280;41249;47.838;16.490;2022-07-06T04:38:04;99415.28;;;15.34;100.00
55373;BME280;41249;47.838;16.490;2022-07-06T04:40:31;99421.34;;;15.63;100.00
55373;BME280;41249;47.838;16.490;2022-07-06T04:43:02;99423.00;;;15.71;100.00
55373;BME280;41249;47.838;16.490;2022-07-06T04:45:29;99424.66;;;16.05;100.00
55373;BME280;41249;47.838;16.490;2022-07-06T04:47:57;99431.28;;;16.15;100.00
55373;BME280;41249;47.838;16.490;2022-07-06T04:50:24;99428.41;;;16.30;100.00
55373;BME280;41249;47.838;16.490;2022-07-06T04:52:52;99430.66;;;16.40;100.00
55373;BME280;41249;47.838;16.490;2022-07-06T04:55:20;99432.50;;;16.39;100.00
55373;BME280;41249;47.838;16.490;2022-07-06T04:57:47;99440.31;;;16.54;100.00
55373;BME280;41249;47.838;16.490;2022-07-06T05:00:17;99441.97;;;16.55;100.00
55373;BME280;41249;47.838;16.490;2022-07-06T05:02:46;99438.66;;;16.53;100.00
55373;BME280;41249;47.838;16.490;2022-07-06T05:05:13;99444.84;;;16.60;100.00
55373;BME280;41249;47.838;16.490;2022-07-06T05:07:42;99451.03;;;16.54;100.00
55373;BME280;41249;47.838;16.490;2022-07-06T05:10:10;99454.56;;;16.35;100.00
55373;BME280;41249;47.838;16.490;2022-07-06T05:12:40;99446.13;;;16.31;100.00
55373;BME280;41249;47.838;16.490;2022-07-06T05:15:08;99452.91;;;16.20;100.00
55373;BME280;41249;47.838;16.490;2022-07-06T05:17:34;99448.41;;;16.28;100.00
55373;BME280;41249;47.838;16.490;2022-07-06T05:20:03;99453.13;;;16.39;100.00
55373;BME280;41249;47.838;16.490;2022-07-06T05:22:33;99450.25;;;16.40;100.00
55373;BME280;41249;47.838;16.490;2022-07-06T05:25:00;99456.44;;;16.47;100.00
55373;BME280;41249;47.838;16.490;2022-07-06T05:27:27;99453.47;;;16.69;100.00
55373;BME280;41249;47.838;16.490;2022-07-06T05:29:54;99453.59;;;16.94;100.00
55373;BME280;41249;47.838;16.490;2022-07-06T05:32:21;99449.22;;;17.06;100.00
55373;BME280;41249;47.838;16.490;2022-07-06T05:34:50;99462.84;;;17.18;100.00
55373;BME280;41249;47.838;16.490;2022-07-06T05:37:18;99450.81;;;17.27;100.00
55373;BME280;41249;47.838;16.490;2022-07-06T05:39:45;99462.09;;;17.42;100.00
55373;BME280;41249;47.838;16.490;2022-07-06T05:42:13;99455.94;;;17.67;100.00
55373;BME280;41249;47.838;16.490;2022-07-06T05:47:07;99460.97;;;17.56;100.00
55373;BME280;41249;47.838;16.490;2022-07-06T05:49:53;99453.34;;;17.85;100.00
55373;BME280;41249;47.838;16.490;2022-07-06T05:52:44;99457.81;;;17.66;100.00
55373;BME280;41249;47.838;16.490;2022-07-06T05:55:13;99465.97;;;17.84;98.71
55373;BME280;41249;47.838;16.490;2022-07-06T05:57:41;99460.50;;;17.66;99.93
55373;BME280;41249;47.838;16.490;2022-07-06T06:00:09;99465.28;;;17.96;100.00
55373;BME280;41249;47.838;16.490;2022-07-06T06:02:47;99460.13;;;18.19;98.90
55373;BME280;41249;47.838;16.490;2022-07-06T06:05:16;99455.22;;;18.34;98.61
55373;BME280;41249;47.838;16.490;2022-07-06T06:07:53;99457.97;;;18.28;94.40
55373;BME280;41249;47.838;16.490;2022-07-06T06:10:23;99463.47;;;18.39;92.63
55373;BME280;41249;47.838;16.490;2022-07-06T06:12:53;99460.91;;;18.45;91.10
55373;BME280;41249;47.838;16.490;2022-07-06T06:15:20;99462.50;;;18.77;94.21
55373;BME280;41249;47.838;16.490;2022-07-06T06:17:47;99465.13;;;18.59;90.11
55373;BME280;41249;47.838;16.490;2022-07-06T06:20:14;99467.13;;;18.70;88.35
55373;BME280;41249;47.838;16.490;2022-07-06T06:22:52;99457.69;;;18.36;87.56
55373;BME280;41249;47.838;16.490;2022-07-06T06:25:32;99458.66;;;18.66;86.98
55373;BME280;41249;47.838;16.490;2022-07-06T06:28:00;99462.63;;;18.64;90.25
55373;BME280;41249;47.838;16.490;2022-07-06T06:30:27;99456.63;;;18.80;91.09
55373;BME280;41249;47.838;16.490;2022-07-06T06:33:11;99468.75;;;19.08;93.91
55373;BME280;41249;47.838;16.490;2022-07-06T06:35:42;99458.25;;;19.18;85.44
55373;BME280;41249;47.838;16.490;2022-07-06T06:38:09;99459.66;;;19.39;84.27
55373;BME280;41249;47.838;16.490;2022-07-06T06:40:36;99461.94;;;19.54;83.14
55373;BME280;41249;47.838;16.490;2022-07-06T06:43:03;99462.03;;;19.47;82.89
55373;BME280;41249;47.838;16.490;2022-07-06T06:45:33;99468.69;;;19.74;84.42
55373;BME280;41249;47.838;16.490;2022-07-06T06:48:00;99458.56;;;19.58;79.55
55373;BME280;41249;47.838;16.490;2022-07-06T06:50:27;99456.41;;;19.90;80.66
55373;BME280;41249;47.838;16.490;2022-07-06T06:52:54;99459.88;;;19.56;79.56
55373;BME280;41249;47.838;16.490;2022-07-06T06:55:21;99452.41;;;19.81;73.57
55373;BME280;41249;47.838;16.490;2022-07-06T06:57:50;99457.38;;;19.96;77.96
55373;BME280;41249;47.838;16.490;2022-07-06T07:00:17;99460.63;;;19.98;76.93
55373;BME280;41249;47.838;16.490;2022-07-06T07:02:44;99469.56;;;19.87;74.92
55373;BME280;41249;47.838;16.490;2022-07-06T07:05:11;99469.50;;;19.75;78.14
55373;BME280;41249;47.838;16.490;2022-07-06T07:07:38;99472.81;;;19.77;79.44
55373;BME280;41249;47.838;16.490;2022-07-06T07:10:05;99474.81;;;19.82;78.25
55373;BME280;41249;47.838;16.490;2022-07-06T07:12:32;99471.00;;;20.13;76.00
55373;BME280;41249;47.838;16.490;2022-07-06T07:15:00;99467.69;;;19.87;71.81
55373;BME280;41249;47.838;16.490;2022-07-06T07:17:27;99476.91;;;19.80;75.79
55373;BME280;41249;47.838;16.490;2022-07-06T07:19:54;99473.75;;;19.71;78.03
55373;BME280;41249;47.838;16.490;2022-07-06T07:22:22;99465.97;;;20.05;77.17
55373;BME280;41249;47.838;16.490;2022-07-06T07:24:52;99469.09;;;20.01;73.77
55373;BME280;41249;47.838;16.490;2022-07-06T07:27:19;99469.28;;;20.18;73.22
55373;BME280;41249;47.838;16.490;2022-07-06T07:29:46;99476.91;;;20.45;70.53
55373;BME280;41249;47.838;16.490;2022-07-06T07:32:13;99474.44;;;20.67;70.43
55373;BME280;41249;47.838;16.490;2022-07-06T07:34:40;99477.44;;;21.05;71.64
55373;BME280;41249;47.838;16.490;2022-07-06T07:37:06;99475.91;;;21.09;70.62
55373;BME280;41249;47.838;16.490;2022-07-06T07:39:33;99472.66;;;20.84;65.88
55373;BME280;41249;47.838;16.490;2022-07-06T07:42:00;99478.06;;;20.84;63.70
55373;BME280;41249;47.838;16.490;2022-07-06T07:44:27;99459.72;;;19.92;64.19
55373;BME280;41249;47.838;16.490;2022-07-06T07:46:53;99467.75;;;20.11;68.65
55373;BME280;41249;47.838;16.490;2022-07-06T07:49:20;99467.41;;;20.30;68.13
55373;BME280;41249;47.838;16.490;2022-07-06T07:51:48;99460.22;;;20.13;68.97
55373;BME280;41249;47.838;16.490;2022-07-06T07:54:16;99463.16;;;20.93;68.30
55373;BME280;41249;47.838;16.490;2022-07-06T07:56:43;99466.78;;;21.67;67.67
55373;BME280;41249;47.838;16.490;2022-07-06T07:59:10;99456.25;;;21.14;69.47
55373;BME280;41249;47.838;16.490;2022-07-06T08:01:38;99459.69;;;21.09;66.62
55373;BME280;41249;47.838;16.490;2022-07-06T08:04:05;99461.41;;;20.87;67.09
55373;BME280;41249;47.838;16.490;2022-07-06T08:06:32;99467.50;;;20.71;66.76
55373;BME280;41249;47.838;16.490;2022-07-06T08:08:59;99467.06;;;20.74;64.23
55373;BME280;41249;47.838;16.490;2022-07-06T08:11:25;99452.56;;;21.32;62.77
55373;BME280;41249;47.838;16.490;2022-07-06T08:13:52;99448.69;;;22.35;64.59
55373;BME280;41249;47.838;16.490;2022-07-06T08:16:19;99464.69;;;21.58;62.64
55373;BME280;41249;47.838;16.490;2022-07-06T08:18:46;99473.84;;;20.88;62.38
55373;BME280;41249;47.838;16.490;2022-07-06T08:21:13;99463.59;;;21.02;62.84
55373;BME280;41249;47.838;16.490;2022-07-06T08:23:55;99456.25;;;21.54;60.77
55373;BME280;41249;47.838;16.490;2022-07-06T08:26:22;99463.16;;;21.22;59.83
55373;BME280;41249;47.838;16.490;2022-07-06T08:28:49;99461.97;;;21.41;58.93
55373;BME280;41249;47.838;16.490;2022-07-06T08:31:17;99446.47;;;21.99;56.19
55373;BME280;41249;47.838;16.490;2022-07-06T08:34:04;99448.97;;;22.17;52.40
55373;BME280;41249;47.838;16.490;2022-07-06T08:36:31;99444.31;;;22.51;54.11
55373;BME280;41249;47.838;16.490;2022-07-06T08:38:58;99452.22;;;22.36;52.30
55373;BME280;41249;47.838;16.490;2022-07-06T08:41:27;99453.19;;;22.30;52.49
55373;BME280;41249;47.838;16.490;2022-07-06T08:43:55;99453.16;;;21.79;53.49
55373;BME280;41249;47.838;16.490;2022-07-06T08:46:22;99441.88;;;21.82;55.07
55373;BME280;41249;47.838;16.490;2022-07-06T08:48:49;99440.72;;;22.29;51.93
55373;BME280;41249;47.838;16.490;2022-07-06T08:51:18;99447.38;;;21.87;54.03
55373;BME280;41249;47.838;16.490;2022-07-06T08:53:54;99445.75;;;22.03;51.39
55373;BME280;41249;47.838;16.490;2022-07-06T08:56:21;99443.94;;;21.47;52.58
55373;BME280;41249;47.838;16.490;2022-07-06T08:58:48;99441.81;;;22.11;51.84
55373;BME280;41249;47.838;16.490;2022-07-06T09:01:16;99439.44;;;22.31;51.09
55373;BME280;41249;47.838;16.490;2022-07-06T09:03:45;99451.44;;;22.57;51.23
55373;BME280;41249;47.838;16.490;2022-07-06T09:06:16;99448.00;;;21.78;51.17
55373;BME280;41249;47.838;16.490;2022-07-06T09:08:46;99437.78;;;21.97;51.99
55373;BME280;41249;47.838;16.490;2022-07-06T09:11:13;99438.09;;;22.00;50.16
55373;BME280;41249;47.838;16.490;2022-07-06T09:13:40;99432.03;;;21.93;51.07
55373;BME280;41249;47.838;16.490;2022-07-06T09:16:12;99429.94;;;23.11;51.56
55373;BME280;41249;47.838;16.490;2022-07-06T09:19:00;99438.16;;;23.21;49.15
55373;BME280;41249;47.838;16.490;2022-07-06T09:21:31;99428.31;;;23.64;49.27
55373;BME280;41249;47.838;16.490;2022-07-06T09:24:01;99436.38;;;23.05;47.52
55373;BME280;41249;47.838;16.490;2022-07-06T09:26:30;99430.44;;;23.57;47.00
55373;BME280;41249;47.838;16.490;2022-07-06T09:28:57;99427.25;;;23.92;46.27
55373;BME280;41249;47.838;16.490;2022-07-06T09:31:26;99434.09;;;22.75;47.61
55373;BME280;41249;47.838;16.490;2022-07-06T09:34:02;99422.22;;;23.47;45.48
55373;BME280;41249;47.838;16.490;2022-07-06T09:36:42;99423.25;;;23.73;44.24
55373;BME280;41249;47.838;16.490;2022-07-06T09:39:22;99427.84;;;23.40;43.43
55373;BME280;41249;47.838;16.490;2022-07-06T09:41:55;99425.41;;;23.44;43.20
55373;BME280;41249;47.838;16.490;2022-07-06T09:44:34;99412.88;;;23.97;43.71
55373;BME280;41249;47.838;16.490;2022-07-06T09:47:05;99420.66;;;23.88;42.99
55373;BME280;41249;47.838;16.490;2022-07-06T09:49:33;99434.44;;;23.27;43.13
55373;BME280;41249;47.838;16.490;2022-07-06T09:52:02;99434.50;;;23.60;43.56
55373;BME280;41249;47.838;16.490;2022-07-06T09:54:30;99437.56;;;22.92;46.01
55373;BME280;41249;47.838;16.490;2022-07-06T09:56:57;99427.41;;;22.44;47.33
55373;BME280;41249;47.838;16.490;2022-07-06T09:59:29;99432.81;;;22.61;47.10
55373;BME280;41249;47.838;16.490;2022-07-06T10:01:58;99427.69;;;22.26;48.17
55373;BME280;41249;47.838;16.490;2022-07-06T10:04:26;99427.78;;;22.31;46.61
55373;BME280;41249;47.838;16.490;2022-07-06T10:06:54;99426.78;;;21.86;49.21
55373;BME280;41249;47.838;16.490;2022-07-06T10:09:24;99419.19;;;22.56;45.20
55373;BME280;41249;47.838;16.490;2022-07-06T10:11:59;99412.50;;;22.63;43.35
55373;BME280;41249;47.838;16.490;2022-07-06T10:14:31;99410.16;;;23.65;42.36
55373;BME280;41249;47.838;16.490;2022-07-06T10:17:02;99413.66;;;24.29;42.28
55373;BME280;41249;47.838;16.490;2022-07-06T10:19:30;99414.16;;;24.21;42.04
55373;BME280;41249;47.838;16.490;2022-07-06T10:22:00;99427.06;;;23.23;50.09
55373;BME280;41249;47.838;16.490;2022-07-06T10:24:29;99429.25;;;22.99;53.29
55373;BME280;41249;47.838;16.490;2022-07-06T10:26:57;99432.69;;;22.00;54.46
55373;BME280;41249;47.838;16.490;2022-07-06T10:29:24;99422.38;;;22.31;56.35
55373;BME280;41249;47.838;16.490;2022-07-06T10:31:52;99419.31;;;22.66;54.39
55373;BME280;41249;47.838;16.490;2022-07-06T10:34:20;99416.09;;;23.62;52.25
55373;BME280;41249;47.838;16.490;2022-07-06T10:36:52;99400.94;;;23.66;52.74
55373;BME280;41249;47.838;16.490;2022-07-06T10:39:35;99406.72;;;24.49;48.29
55373;BME280;41249;47.838;16.490;2022-07-06T10:45:14;99415.13;;;23.46;49.08
55373;BME280;41249;47.838;16.490;2022-07-06T10:47:41;99421.31;;;23.68;50.34
55373;BME280;41249;47.838;16.490;2022-07-06T10:50:10;99428.34;;;23.15;47.51
55373;BME280;41249;47.838;16.490;2022-07-06T10:52:53;99420.25;;;23.69;43.52
55373;BME280;41249;47.838;16.490;2022-07-06T10:55:35;99434.44;;;23.27;44.47
55373;BME280;41249;47.838;16.490;2022-07-06T10:58:03;99433.63;;;23.49;45.58
55373;BME280;41249;47.838;16.490;2022-07-06T11:00:52;99430.34;;;23.47;48.33
55373;BME280;41249;47.838;16.490;2022-07-06T11:08:57;99455.59;;;22.65;53.33
55373;BME280;41249;47.838;16.490;2022-07-06T11:17:19;99475.22;;;22.16;61.53
55373;BME280;41249;47.838;16.490;2022-07-06T11:19:22;99535.41;;;21.38;61.30
55373;BME280;41249;47.838;16.490;2022-07-06T11:21:53;99547.31;;;19.60;66.98
55373;BME280;41249;47.838;16.490;2022-07-06T11:24:28;99526.75;;;20.07;67.82
55373;BME280;41249;47.838;16.490;2022-07-06T11:26:57;99522.31;;;19.53;65.75
55373;BME280;41249;47.838;16.490;2022-07-06T11:29:25;99543.41;;;18.82;78.08
55373;BME280;41249;47.838;16.490;2022-07-06T11:31:54;99554.09;;;18.14;100.00
55373;BME280;41249;47.838;16.490;2022-07-06T11:34:26;99554.56;;;17.66;100.00
55373;BME280;41249;47.838;16.490;2022-07-06T11:36:59;99566.22;;;17.53;100.00
55373;BME280;41249;47.838;16.490;2022-07-06T11:39:27;99585.50;;;17.89;100.00
55373;BME280;41249;47.838;16.490;2022-07-06T11:41:55;99578.44;;;17.94;100.00
55373;BME280;41249;47.838;16.490;2022-07-06T11:44:22;99589.41;;;17.93;100.00
55373;BME280;41249;47.838;16.490;2022-07-06T11:46:50;99602.56;;;18.07;100.00
55373;BME280;41249;47.838;16.490;2022-07-06T11:49:17;99596.00;;;17.97;97.77
55373;BME280;41249;47.838;16.490;2022-07-06T11:51:45;99585.84;;;18.30;95.04
55373;BME280;41249;47.838;16.490;2022-07-06T11:54:18;99587.56;;;17.87;98.69
55373;BME280;41249;47.838;16.490;2022-07-06T11:59:14;99560.00;;;18.79;74.01
55373;BME280;41249;47.838;16.490;2022-07-06T12:01:41;99564.47;;;18.67;74.69
55373;BME280;41249;47.838;16.490;2022-07-06T12:04:11;99549.88;;;19.00;74.93
55373;BME280;41249;47.838;16.490;2022-07-06T12:06:38;99547.97;;;18.57;70.35
55373;BME280;41249;47.838;16.490;2022-07-06T12:09:09;99549.06;;;18.74;71.05
55373;BME280;41249;47.838;16.490;2022-07-06T12:11:37;99545.38;;;18.93;72.97
55373;BME280;41249;47.838;16.490;2022-07-06T12:14:19;99538.16;;;19.61;65.70
55373;BME280;41249;47.838;16.490;2022-07-06T12:16:48;99538.19;;;20.02;64.72
55373;BME280;41249;47.838;16.490;2022-07-06T12:19:16;99539.69;;;19.98;65.74
55373;BME280;41249;47.838;16.490;2022-07-06T12:21:48;99533.25;;;19.21;71.58
55373;BME280;41249;47.838;16.490;2022-07-06T12:24:20;99527.38;;;20.33;66.08
55373;BME280;41249;47.838;16.490;2022-07-06T12:26:48;99522.72;;;20.87;67.24
55373;BME280;41249;47.838;16.490;2022-07-06T12:29:15;99518.66;;;21.12;64.12
55373;BME280;41249;47.838;16.490;2022-07-06T12:31:51;99514.44;;;21.17;65.53
55373;BME280;41249;47.838;16.490;2022-07-06T12:36:48;99519.94;;;21.22;67.54
55373;BME280;41249;47.838;16.490;2022-07-06T12:39:18;99508.84;;;21.35;64.56
55373;BME280;41249;47.838;16.490;2022-07-06T12:42:04;99505.59;;;21.61;67.08
55373;BME280;41249;47.838;16.490;2022-07-06T12:44:32;99511.97;;;21.15;67.17
55373;BME280;41249;47.838;16.490;2022-07-06T12:47:04;99501.44;;;21.02;64.45
55373;BME280;41249;47.838;16.490;2022-07-06T12:49:32;99503.28;;;21.13;62.32
55373;BME280;41249;47.838;16.490;2022-07-06T12:52:16;99506.59;;;21.03;62.47
55373;BME280;41249;47.838;16.490;2022-07-06T12:54:48;99506.47;;;20.40;59.28
55373;BME280;41249;47.838;16.490;2022-07-06T12:57:23;99507.91;;;20.66;57.79
55373;BME280;41249;47.838;16.490;2022-07-06T13:02:32;99504.97;;;20.44;58.29
55373;BME280;41249;47.838;16.490;2022-07-06T13:05:26;99505.56;;;20.81;58.05
55373;BME280;41249;47.838;16.490;2022-07-06T13:07:57;99501.69;;;21.29;57.61
55373;BME280;41249;47.838;16.490;2022-07-06T13:10:24;99490.69;;;21.59;56.58
55373;BME280;41249;47.838;16.490;2022-07-06T13:12:52;99496.75;;;21.37;55.43
55373;BME280;41249;47.838;16.490;2022-07-06T13:15:19;99487.06;;;21.53;56.36
55373;BME280;41249;47.838;16.490;2022-07-06T13:17:47;99492.63;;;21.47;56.30
55373;BME280;41249;47.838;16.490;2022-07-06T13:20:14;99483.94;;;21.33;54.62